createdAt,value
2022-11-10T06:49:51.624Z,5.32
2022-11-10T06:52:57.969Z,5.80
2022-11-10T06:55:59.902Z,7.97
2022-11-10T06:59:02.410Z,19.98
2022-11-10T07:02:04.445Z,7.45
2022-11-10T07:05:07.577Z,4.82
2022-11-10T07:08:16.467Z,4.50
2022-11-10T07:11:18.595Z,3.88
2022-11-10T07:14:21.539Z,4.30
2022-11-10T07:17:24.634Z,3.78
2022-11-10T07:20:28.397Z,4.53
2022-11-10T07:23:31.461Z,4.93
2022-11-10T07:26:33.615Z,4.22
2022-11-10T07:29:36.285Z,4.15
2022-11-10T07:32:38.179Z,5.55
2022-11-10T07:35:40.624Z,4.20
2022-11-10T07:38:42.607Z,4.53
2022-11-10T07:41:47.632Z,4.65
2022-11-10T07:44:52.053Z,7.15
2022-11-10T07:47:59.712Z,7.28
2022-11-10T07:51:01.510Z,5.68
2022-11-10T07:54:04.110Z,4.70
2022-11-10T07:57:06.369Z,4.30
2022-11-10T08:00:08.822Z,5.20
2022-11-10T08:03:14.596Z,4.20
2022-11-10T08:06:16.531Z,3.50
2022-11-10T08:09:18.425Z,4.18
2022-11-10T08:12:20.451Z,3.15
2022-11-10T08:15:23.239Z,3.20
2022-11-10T08:18:26.179Z,4.68
2022-11-10T08:21:31.736Z,4.43
2022-11-10T08:24:33.559Z,3.47
2022-11-10T08:27:35.597Z,3.28
2022-11-10T08:30:39.259Z,2.90
2022-11-10T08:33:41.100Z,5.45
2022-11-10T08:36:43.392Z,4.45
2022-11-10T08:39:46.579Z,10.52
2022-11-10T08:42:49.479Z,8.25
2022-11-10T08:45:57.289Z,2.92
2022-11-10T08:49:00.197Z,2.60
2022-11-10T08:52:11.959Z,3.03
2022-11-10T08:55:14.122Z,1.92
2022-11-10T08:58:26.887Z,2.20
2022-11-10T09:01:29.129Z,2.92
2022-11-10T09:04:31.873Z,2.40
2022-11-10T09:07:44.354Z,2.25
2022-11-10T09:10:50.388Z,2.30
2022-11-10T09:13:52.322Z,1.83
2022-11-10T09:16:56.849Z,2.22
2022-11-10T09:19:58.707Z,2.90
2022-11-10T09:23:10.441Z,2.35
2022-11-10T09:26:13.032Z,2.53
2022-11-10T09:29:15.142Z,3.55
2022-11-10T09:32:17.233Z,3.88
2022-11-10T09:35:19.244Z,6.85
2022-11-10T09:38:22.239Z,4.05
2022-11-10T09:41:24.317Z,5.43
2022-11-10T09:44:43.106Z,6.75
2022-11-10T09:47:57.700Z,3.22
2022-11-10T09:51:06.518Z,6.07
2022-11-10T09:54:40.431Z,3.30
2022-11-10T09:57:48.876Z,2.85
2022-11-10T10:01:08.010Z,2.95
2022-11-10T10:04:44.710Z,4.03
2022-11-10T10:08:09.528Z,2.13
2022-11-10T10:11:30.151Z,2.92
2022-11-10T10:14:52.605Z,2.10
2022-11-10T10:18:22.648Z,2.90
2022-11-10T10:21:45.911Z,3.20
2022-11-10T10:24:53.311Z,2.28
2022-11-10T10:28:06.530Z,2.30
2022-11-10T10:31:20.281Z,3.30
2022-11-10T10:34:29.567Z,2.67
2022-11-10T10:37:46.857Z,1.90
2022-11-10T10:40:51.379Z,3.17
2022-11-10T10:43:56.314Z,2.90
2022-11-10T10:50:33.409Z,1.83
2022-11-10T10:53:47.391Z,2.00
2022-11-10T10:56:49.966Z,1.65
2022-11-10T10:59:52.800Z,1.88
2022-11-10T11:03:04.776Z,2.67
2022-11-10T11:06:16.798Z,1.75
2022-11-10T11:09:29.478Z,1.75
2022-11-10T11:12:33.076Z,1.85
2022-11-10T11:15:35.048Z,2.17
2022-11-10T11:18:40.180Z,1.40
2022-11-10T11:21:59.936Z,1.90
2022-11-10T11:25:41.347Z,1.60
2022-11-10T11:29:19.572Z,1.95
2022-11-10T11:32:49.379Z,1.63
2022-11-10T11:36:04.261Z,1.50
2022-11-10T11:39:33.451Z,2.05
2022-11-10T11:43:15.636Z,1.70
2022-11-10T11:46:38.519Z,1.55
2022-11-10T11:50:12.426Z,1.40
2022-11-10T11:53:42.031Z,1.50
2022-11-10T11:56:47.982Z,2.47
2022-11-10T12:00:08.607Z,3.72
2022-11-10T12:03:29.922Z,2.30
2022-11-10T12:06:57.878Z,1.67
2022-11-10T12:10:21.784Z,1.58
2022-11-10T12:13:37.026Z,1.38
2022-11-10T12:16:40.643Z,1.52
2022-11-10T12:19:57.178Z,1.27
2022-11-10T12:23:25.445Z,1.30
2022-11-10T12:26:54.455Z,1.52
2022-11-10T12:30:03.163Z,1.27
2022-11-10T12:33:20.493Z,1.75
2022-11-10T12:36:24.063Z,1.20
2022-11-10T12:39:40.397Z,1.20
2022-11-10T12:42:46.633Z,0.88
2022-11-10T12:45:55.198Z,1.58
2022-11-10T12:49:19.856Z,0.90
2022-11-10T12:52:35.231Z,1.35
2022-11-10T12:55:45.782Z,1.23
2022-11-10T12:58:47.900Z,1.70
2022-11-10T13:01:52.905Z,1.08
2022-11-10T13:05:14.696Z,1.38
2022-11-10T13:08:25.803Z,0.75
2022-11-10T13:11:38.033Z,1.00
2022-11-10T13:14:40.209Z,1.30
2022-11-10T13:17:41.980Z,1.35
2022-11-10T13:20:47.948Z,0.90
2022-11-10T13:23:49.892Z,1.13
2022-11-10T13:26:55.552Z,1.20
2022-11-10T13:29:58.065Z,1.23
2022-11-10T13:33:23.008Z,1.20
2022-11-10T13:36:47.099Z,1.27
2022-11-10T13:39:49.063Z,1.30
2022-11-10T13:42:58.192Z,1.15
2022-11-10T13:46:01.510Z,1.20
2022-11-10T13:49:37.579Z,1.00
2022-11-10T13:52:39.386Z,2.28
2022-11-10T13:56:20.951Z,1.08
2022-11-10T13:59:25.956Z,1.48
2022-11-10T14:02:38.890Z,1.65
2022-11-10T14:05:42.074Z,1.50
2022-11-10T14:08:54.100Z,1.42
2022-11-10T14:12:02.470Z,1.65
2022-11-10T14:15:12.698Z,1.30
2022-11-10T14:18:20.717Z,1.55
2022-11-10T14:21:29.221Z,1.02
2022-11-10T14:24:39.208Z,1.80
2022-11-10T14:27:40.985Z,2.33
2022-11-10T14:30:51.852Z,1.58
2022-11-10T14:33:56.368Z,1.45
2022-11-10T14:37:01.334Z,1.70
2022-11-10T14:40:04.223Z,1.30
2022-11-10T14:43:06.013Z,1.30
2022-11-10T14:46:14.795Z,1.50
2022-11-10T14:49:23.008Z,1.40
2022-11-10T14:52:24.778Z,1.08
2022-11-10T14:55:31.388Z,2.70
2022-11-10T14:58:42.536Z,1.48
2022-11-10T15:01:51.285Z,1.92
2022-11-10T15:04:53.760Z,1.48
2022-11-10T15:07:57.225Z,1.55
2022-11-10T15:10:59.293Z,1.60
2022-11-10T15:14:01.098Z,1.70
2022-11-10T15:17:07.354Z,1.70
2022-11-10T15:20:28.374Z,1.30
2022-11-10T15:23:35.720Z,1.73
2022-11-10T15:26:40.380Z,1.70
2022-11-10T15:29:42.214Z,1.63
2022-11-10T15:32:49.117Z,2.53
2022-11-10T15:35:51.059Z,1.63
2022-11-10T15:39:15.533Z,1.83
2022-11-10T15:42:25.009Z,1.92
2022-11-10T15:45:26.699Z,1.50
2022-11-10T15:48:38.180Z,1.52
2022-11-10T15:51:39.894Z,1.98
2022-11-10T15:54:42.024Z,2.05
2022-11-10T15:57:43.714Z,3.63
2022-11-10T16:00:45.545Z,2.30
2022-11-10T16:03:47.576Z,2.60
2022-11-10T16:06:49.321Z,3.00
2022-11-10T16:09:51.188Z,2.88
2022-11-10T16:12:53.137Z,2.60
2022-11-10T16:15:55.951Z,2.13
2022-11-10T16:18:57.780Z,2.63
2022-11-10T16:21:59.476Z,3.03
2022-11-10T16:25:01.129Z,2.83
2022-11-10T16:28:04.463Z,2.13
2022-11-10T16:31:09.243Z,2.40
2022-11-10T16:34:13.960Z,2.75
2022-11-10T16:37:15.749Z,2.20
2022-11-10T16:40:20.342Z,2.38
2022-11-10T16:43:23.005Z,2.47
2022-11-10T16:46:28.584Z,2.30
2022-11-10T16:49:34.596Z,2.90
2022-11-10T16:52:36.403Z,2.40
2022-11-10T16:55:38.080Z,2.65
2022-11-10T16:58:39.765Z,2.83
